Time;durP1;ratioP1;P1;durP2;ratioP2;P2;SDS_P1;SDS_P2;PMS_P1;PMS_P2;Temp;Humidity;BMP_temperature;BMP_pressure;BME280_temperature;BME280_humidity;BME280_pressure;Samples;Min_cycle;Max_cycle;Signal;HPM_P1;HPM_P2
2022/05/11 00:01:46;;;;;;;;;;;22.90;56.60;;;;;;5001927;28;19914;-53
2022/05/11 00:04:11;;;;;;;;;;;22.90;56.60;;;;;;4986245;28;20099;-52
2022/05/11 00:06:36;;;;;;;;;;;22.90;56.60;;;;;;5001542;28;19981;-54
2022/05/11 00:09:02;;;;;;;;;;;22.90;56.60;;;;;;4985995;28;19918;-55
2022/05/11 00:11:28;;;;;;;;;;;22.90;56.50;;;;;;4986543;28;19964;-59
2022/05/11 00:13:54;;;;;;;;;;;22.90;56.60;;;;;;4986474;28;19956;-58
2022/05/11 00:16:19;;;;;;;;;;;22.90;56.50;;;;;;4986701;28;19921;-59
2022/05/11 00:18:44;;;;;;;;;;;22.90;56.60;;;;;;4985807;28;20371;-56
2022/05/11 00:21:10;;;;;;;;;;;22.90;56.50;;;;;;4985705;28;19914;-58
2022/05/11 00:23:35;;;;;;;;;;;22.90;56.50;;;;;;5000484;28;19914;-55
2022/05/11 00:26:01;;;;;;;;;;;22.90;56.50;;;;;;5034311;23;19924;-53
2022/05/11 00:28:26;;;;;;;;;;;22.90;56.50;;;;;;5044204;28;19920;-53
2022/05/11 00:30:52;;;;;;;;;;;22.90;56.50;;;;;;5025670;28;19936;-55
2022/05/11 00:33:17;;;;;;;;;;;22.90;56.40;;;;;;5024467;28;19948;-56
2022/05/11 00:35:43;;;;;;;;;;;23.00;56.50;;;;;;5024283;28;20397;-55
2022/05/11 00:38:09;;;;;;;;;;;22.90;56.40;;;;;;5023527;28;20298;-56
2022/05/11 00:40:38;;;;;;;;;;;23.00;56.40;;;;;;5024009;28;19913;-54
2022/05/11 00:43:03;;;;;;;;;;;23.00;56.50;;;;;;5022373;28;19917;-56
2022/05/11 00:45:29;;;;;;;;;;;22.90;56.40;;;;;;5023675;28;19978;-55
2022/05/11 00:47:56;;;;;;;;;;;23.00;56.50;;;;;;5022227;28;19917;-54
2022/05/11 00:50:22;;;;;;;;;;;22.90;56.40;;;;;;5022979;28;20012;-57
2022/05/11 00:52:52;;;;;;;;;;;22.90;56.40;;;;;;5022060;28;19913;-52
2022/05/11 00:55:19;;;;;;;;;;;22.90;56.50;;;;;;5022370;28;20071;-56
2022/05/11 00:57:47;;;;;;;;;;;22.90;56.50;;;;;;5023566;28;19921;-54
2022/05/11 01:00:12;;;;;;;;;;;22.90;56.50;;;;;;5023539;28;19920;-55
2022/05/11 01:02:38;;;;;;;;;;;22.90;56.50;;;;;;5026311;28;19917;-55
2022/05/11 01:05:05;;;;;;;;;;;22.90;56.50;;;;;;5027829;28;19951;-56
2022/05/11 01:07:30;;;;;;;;;;;22.90;56.50;;;;;;5026095;28;19913;-54
2022/05/11 01:09:56;;;;;;;;;;;22.90;56.50;;;;;;5025392;28;19925;-57
2022/05/11 01:12:22;;;;;;;;;;;22.90;56.50;;;;;;5027193;28;19913;-53
2022/05/11 01:14:49;;;;;;;;;;;22.90;56.50;;;;;;5027140;28;19914;-53
2022/05/11 01:17:15;;;;;;;;;;;22.90;56.50;;;;;;5026146;28;19963;-57
2022/05/11 01:19:41;;;;;;;;;;;22.90;57.20;;;;;;5027206;28;19916;-55
2022/05/11 01:22:18;;;;;;;;;;;22.90;56.50;;;;;;5027981;28;19948;-56
2022/05/11 01:24:44;;;;;;;;;;;22.90;56.60;;;;;;5010710;28;19917;-52
2022/05/11 01:27:30;;;;;;;;;;;22.90;56.50;;;;;;5025010;28;20000;-52
2022/05/11 01:29:57;;;;;;;;;;;22.90;56.50;;;;;;5027742;28;19925;-52
2022/05/11 01:32:22;;;;;;;;;;;22.90;56.50;;;;;;5028294;28;19989;-55
2022/05/11 01:34:52;;;;;;;;;;;22.90;56.60;;;;;;5027239;28;19937;-49
2022/05/11 01:37:17;;;;;;;;;;;22.90;56.60;;;;;;5028848;28;19913;-54
2022/05/11 01:39:44;;;;;;;;;;;22.90;56.50;;;;;;5027691;28;19964;-52
2022/05/11 01:42:10;;;;;;;;;;;22.90;56.60;;;;;;5028032;28;19920;-53
2022/05/11 01:44:35;;;;;;;;;;;22.90;56.60;;;;;;5028901;28;19913;-51
2022/05/11 01:47:00;;;;;;;;;;;22.90;56.60;;;;;;5027993;28;19913;-51
2022/05/11 01:49:27;;;;;;;;;;;22.80;56.50;;;;;;5027147;28;19933;-55
2022/05/11 01:51:53;;;;;;;;;;;22.90;56.60;;;;;;5026737;28;20012;-52
2022/05/11 01:54:18;;;;;;;;;;;22.90;56.60;;;;;;5027225;28;20420;-52
2022/05/11 01:56:43;;;;;;;;;;;22.90;56.60;;;;;;5027277;28;19917;-52
2022/05/11 01:59:09;;;;;;;;;;;22.90;56.50;;;;;;5025865;28;19913;-52
2022/05/11 02:01:34;;;;;;;;;;;22.90;56.60;;;;;;5027792;28;19913;-52
2022/05/11 02:04:00;;;;;;;;;;;22.90;56.60;;;;;;5025113;28;19939;-52
2022/05/11 02:09:10;;;;;;;;;;;22.80;56.50;;;;;;5025144;28;19975;-55
2022/05/11 02:11:35;;;;;;;;;;;22.90;56.60;;;;;;5024200;28;19916;-52
2022/05/11 02:14:01;;;;;;;;;;;22.90;56.60;;;;;;5025023;28;20007;-53
2022/05/11 02:16:27;;;;;;;;;;;22.90;56.60;;;;;;5026057;28;19931;-54
2022/05/11 02:18:54;;;;;;;;;;;22.80;56.50;;;;;;5025270;28;20012;-52
2022/05/11 02:21:20;;;;;;;;;;;22.90;56.60;;;;;;5025135;28;19913;-54
2022/05/11 02:23:47;;;;;;;;;;;22.90;56.60;;;;;;5025250;28;20450;-53
2022/05/11 02:26:12;;;;;;;;;;;22.90;56.60;;;;;;5025380;28;19952;-54
2022/05/11 02:28:38;;;;;;;;;;;22.80;56.50;;;;;;5024837;28;19920;-56
2022/05/11 02:31:03;;;;;;;;;;;22.80;56.50;;;;;;5024466;28;19913;-57
2022/05/11 02:33:29;;;;;;;;;;;22.80;56.60;;;;;;5025485;28;20145;-56
2022/05/11 02:35:54;;;;;;;;;;;22.80;56.50;;;;;;5025410;28;19920;-57
2022/05/11 02:38:24;;;;;;;;;;;22.80;56.50;;;;;;5024270;28;19924;-57
2022/05/11 02:40:51;;;;;;;;;;;22.90;56.60;;;;;;5026049;28;19913;-55
2022/05/11 02:43:16;;;;;;;;;;;22.80;56.50;;;;;;5025530;28;20282;-53
2022/05/11 02:45:42;;;;;;;;;;;22.90;56.60;;;;;;5026273;28;19920;-56
2022/05/11 02:48:08;;;;;;;;;;;22.80;56.50;;;;;;5025037;28;19988;-49
2022/05/11 02:50:34;;;;;;;;;;;22.80;56.60;;;;;;5025552;28;20355;-52
2022/05/11 02:53:02;;;;;;;;;;;22.80;56.50;;;;;;5025070;28;20008;-57
2022/05/11 02:55:28;;;;;;;;;;;22.80;56.50;;;;;;5026219;28;20012;-54
2022/05/11 02:57:53;;;;;;;;;;;22.80;56.60;;;;;;5025748;28;20449;-54
2022/05/11 03:00:19;;;;;;;;;;;22.80;56.60;;;;;;5030857;28;19913;-53
2022/05/11 03:02:45;;;;;;;;;;;22.80;56.60;;;;;;5027191;28;19955;-57
2022/05/11 03:05:12;;;;;;;;;;;22.80;56.60;;;;;;5026781;28;19917;-55
2022/05/11 03:07:38;;;;;;;;;;;22.80;56.60;;;;;;5026687;28;19924;-53
2022/05/11 03:10:03;;;;;;;;;;;22.80;56.60;;;;;;5026155;28;19917;-56
2022/05/11 03:12:31;;;;;;;;;;;22.80;56.60;;;;;;5026516;28;19913;-57
2022/05/11 03:14:57;;;;;;;;;;;22.80;56.60;;;;;;5026385;28;19920;-57
2022/05/11 03:17:22;;;;;;;;;;;22.80;56.60;;;;;;5026559;28;19913;-55
2022/05/11 03:19:49;;;;;;;;;;;22.80;56.60;;;;;;5025327;28;19914;-54
2022/05/11 03:22:14;;;;;;;;;;;22.80;56.60;;;;;;5026205;28;20288;-55
2022/05/11 03:24:40;;;;;;;;;;;22.80;56.60;;;;;;5025976;28;19917;-55
2022/05/11 03:27:05;;;;;;;;;;;22.80;56.60;;;;;;5026697;28;20298;-57
2022/05/11 03:29:31;;;;;;;;;;;22.80;56.60;;;;;;5025412;28;19917;-55
2022/05/11 03:34:41;;;;;;;;;;;22.80;56.60;;;;;;5025069;28;20145;-55
2022/05/11 03:37:10;;;;;;;;;;;22.80;56.60;;;;;;5027550;28;19914;-58
2022/05/11 03:39:36;;;;;;;;;;;22.80;56.60;;;;;;5024735;28;20019;-58
2022/05/11 03:42:01;;;;;;;;;;;22.80;56.60;;;;;;5026876;28;19913;-56
2022/05/11 03:44:28;;;;;;;;;;;22.80;56.60;;;;;;5024581;28;19921;-57
2022/05/11 03:46:53;;;;;;;;;;;22.80;56.60;;;;;;5022951;28;19914;-56
2022/05/11 03:49:19;;;;;;;;;;;22.80;56.60;;;;;;5023487;28;19964;-56
2022/05/11 03:51:44;;;;;;;;;;;22.80;56.60;;;;;;5024039;28;19996;-56
2022/05/11 03:54:10;;;;;;;;;;;22.80;56.60;;;;;;5023838;28;20367;-56
2022/05/11 03:56:35;;;;;;;;;;;22.70;56.60;;;;;;5024841;28;20101;-57
2022/05/11 03:59:01;;;;;;;;;;;22.80;56.60;;;;;;5023640;28;19913;-53
2022/05/11 04:01:26;;;;;;;;;;;22.80;56.60;;;;;;5022344;28;20298;-57
2022/05/11 04:03:52;;;;;;;;;;;22.70;56.60;;;;;;5023251;28;19936;-54
2022/05/11 04:06:17;;;;;;;;;;;22.70;56.60;;;;;;5023803;28;20083;-54
2022/05/11 04:08:43;;;;;;;;;;;22.70;56.60;;;;;;5020426;28;19917;-55
2022/05/11 04:11:08;;;;;;;;;;;22.70;56.60;;;;;;5022906;28;20389;-55
2022/05/11 04:13:34;;;;;;;;;;;22.70;56.60;;;;;;5024752;28;19968;-57
2022/05/11 04:15:59;;;;;;;;;;;22.70;56.60;;;;;;5023382;28;19913;-54
2022/05/11 04:18:25;;;;;;;;;;;22.80;56.60;;;;;;5022781;28;19924;-56
2022/05/11 04:20:50;;;;;;;;;;;22.70;56.60;;;;;;5025800;28;19913;-57
2022/05/11 04:23:16;;;;;;;;;;;22.80;56.60;;;;;;5025970;28;19919;-52
2022/05/11 04:25:41;;;;;;;;;;;22.70;56.60;;;;;;5025940;28;19925;-54
2022/05/11 04:28:11;;;;;;;;;;;22.70;56.60;;;;;;5026109;28;19920;-51
2022/05/11 04:30:36;;;;;;;;;;;22.70;56.60;;;;;;5026853;28;19953;-51
2022/05/11 04:33:02;;;;;;;;;;;22.80;56.60;;;;;;5026236;28;19914;-55
2022/05/11 04:35:30;;;;;;;;;;;22.70;56.60;;;;;;5026606;28;19920;-51
2022/05/11 04:37:58;;;;;;;;;;;22.70;56.60;;;;;;5035726;28;19917;-55
2022/05/11 04:40:24;;;;;;;;;;;22.70;56.60;;;;;;5029410;28;19913;-54
2022/05/11 04:42:50;;;;;;;;;;;22.70;56.60;;;;;;5035942;28;19913;-52
2022/05/11 04:45:15;;;;;;;;;;;22.70;56.60;;;;;;5029549;28;19913;-52
2022/05/11 04:47:41;;;;;;;;;;;22.70;56.60;;;;;;5029715;28;20347;-52
2022/05/11 04:50:07;;;;;;;;;;;22.70;56.60;;;;;;5029606;28;20378;-50
2022/05/11 04:52:32;;;;;;;;;;;22.70;56.70;;;;;;5029927;28;19913;-48
2022/05/11 04:54:58;;;;;;;;;;;22.80;56.70;;;;;;5022664;28;19999;-53
2022/05/11 04:57:23;;;;;;;;;;;22.70;56.70;;;;;;5033647;28;19974;-50
2022/05/11 04:59:50;;;;;;;;;;;22.70;56.70;;;;;;5034278;28;19918;-52
2022/05/11 05:02:19;;;;;;;;;;;22.70;56.60;;;;;;5029309;28;19913;-55
2022/05/11 05:04:45;;;;;;;;;;;22.80;57.30;;;;;;5028265;28;19975;-53
2022/05/11 05:07:10;;;;;;;;;;;22.70;56.60;;;;;;5028708;28;19913;-52
2022/05/11 05:09:36;;;;;;;;;;;22.80;56.70;;;;;;5027979;28;20055;-54
2022/05/11 05:12:01;;;;;;;;;;;22.70;56.60;;;;;;5027661;28;19947;-53
2022/05/11 05:14:27;;;;;;;;;;;22.80;56.70;;;;;;5026999;28;19920;-54
2022/05/11 05:16:52;;;;;;;;;;;22.80;56.70;;;;;;5027978;28;19913;-49
2022/05/11 05:19:18;;;;;;;;;;;22.80;56.70;;;;;;5027820;28;20430;-56
2022/05/11 05:21:43;;;;;;;;;;;22.80;56.70;;;;;;5028039;28;19913;-52
2022/05/11 05:24:09;;;;;;;;;;;22.80;56.70;;;;;;5026573;28;19967;-52
2022/05/11 05:26:34;;;;;;;;;;;22.70;56.80;;;;;;5028569;28;19921;-54
2022/05/11 05:31:44;;;;;;;;;;;22.80;57.00;;;;;;5025630;28;19924;-55
2022/05/11 05:34:09;;;;;;;;;;;22.80;57.00;;;;;;5026562;28;19913;-53
2022/05/11 05:36:38;;;;;;;;;;;22.70;57.20;;;;;;5027144;28;19944;-53
2022/05/11 05:39:04;;;;;;;;;;;22.80;57.30;;;;;;5025752;28;19921;-55
2022/05/11 05:41:29;;;;;;;;;;;22.70;57.30;;;;;;5026403;28;19921;-51
2022/05/11 05:43:55;;;;;;;;;;;22.80;57.40;;;;;;5027029;28;19943;-51
2022/05/11 05:46:21;;;;;;;;;;;22.80;57.20;;;;;;5025234;28;20024;-51
2022/05/11 05:48:46;;;;;;;;;;;22.80;57.20;;;;;;5026197;28;19913;-55
2022/05/11 05:51:12;;;;;;;;;;;22.80;57.10;;;;;;5028131;28;19967;-53
2022/05/11 05:53:40;;;;;;;;;;;22.80;57.00;;;;;;5027547;28;19989;-50
2022/05/11 05:56:05;;;;;;;;;;;22.70;56.80;;;;;;5027920;28;19913;-53
2022/05/11 05:58:31;;;;;;;;;;;22.70;56.70;;;;;;5026867;28;19944;-56
2022/05/11 06:00:56;;;;;;;;;;;22.80;56.60;;;;;;5016554;28;20426;-49
2022/05/11 06:03:22;;;;;;;;;;;22.70;56.50;;;;;;5026455;28;19913;-55
2022/05/11 06:05:48;;;;;;;;;;;22.70;57.20;;;;;;5026192;28;20012;-52
2022/05/11 06:08:15;;;;;;;;;;;22.70;56.60;;;;;;5024291;28;19914;-52
2022/05/11 06:10:41;;;;;;;;;;;22.70;56.60;;;;;;5024860;28;19924;-52
2022/05/11 06:13:07;;;;;;;;;;;22.70;56.60;;;;;;5021921;28;20295;-51
2022/05/11 06:15:32;;;;;;;;;;;22.80;56.80;;;;;;5015905;28;19917;-51
2022/05/11 06:17:57;;;;;;;;;;;22.70;56.70;;;;;;5027324;28;19953;-51
2022/05/11 06:20:23;;;;;;;;;;;22.70;56.80;;;;;;5027380;28;19913;-52
2022/05/11 06:22:50;;;;;;;;;;;22.70;56.80;;;;;;5027894;28;19922;-53
2022/05/11 06:25:18;;;;;;;;;;;22.80;56.90;;;;;;5026566;28;19924;-53
2022/05/11 06:27:44;;;;;;;;;;;22.70;56.90;;;;;;5026824;28;20366;-51
2022/05/11 06:30:09;;;;;;;;;;;22.70;56.80;;;;;;5025947;28;19918;-54
2022/05/11 06:32:35;;;;;;;;;;;22.80;56.90;;;;;;5026546;28;20346;-54
2022/05/11 06:35:00;;;;;;;;;;;22.80;56.90;;;;;;5024913;28;19929;-53
2022/05/11 06:37:26;;;;;;;;;;;22.70;57.00;;;;;;5025923;28;20341;-52
2022/05/11 06:39:51;;;;;;;;;;;22.70;56.90;;;;;;5025448;28;19918;-52
2022/05/11 06:42:17;;;;;;;;;;;22.80;57.00;;;;;;5026766;28;20324;-52
2022/05/11 06:44:43;;;;;;;;;;;22.80;57.00;;;;;;5026479;28;19920;-55
2022/05/11 06:47:08;;;;;;;;;;;22.80;57.20;;;;;;5026908;28;19920;-50
2022/05/11 06:49:34;;;;;;;;;;;22.80;57.00;;;;;;5025905;28;19924;-54
2022/05/11 06:52:00;;;;;;;;;;;22.80;57.00;;;;;;5026460;28;19917;-54
2022/05/11 06:59:54;;;;;;;;;;;22.80;57.60;;;;;;5025226;28;19972;-56
2022/05/11 07:02:19;;;;;;;;;;;22.80;57.40;;;;;;5026330;28;20352;-52
2022/05/11 07:04:45;;;;;;;;;;;22.80;58.30;;;;;;5025891;28;19923;-54
2022/05/11 07:07:10;;;;;;;;;;;22.80;58.50;;;;;;5026448;28;19913;-55
2022/05/11 07:09:36;;;;;;;;;;;22.80;58.40;;;;;;5024156;28;19917;-52
2022/05/11 07:14:47;;;;;;;;;;;22.80;58.40;;;;;;5026337;28;19963;-53
2022/05/11 07:17:12;;;;;;;;;;;22.80;58.40;;;;;;5025546;28;20282;-54
2022/05/11 07:19:41;;;;;;;;;;;22.80;58.40;;;;;;5026425;28;19913;-51
2022/05/11 07:22:06;;;;;;;;;;;22.80;58.40;;;;;;5026074;28;19913;-51
2022/05/11 07:24:32;;;;;;;;;;;22.80;58.40;;;;;;5025813;28;19913;-52
2022/05/11 07:26:57;;;;;;;;;;;22.80;58.20;;;;;;5025508;28;19951;-53
2022/05/11 07:29:23;;;;;;;;;;;22.80;57.60;;;;;;5024933;28;19917;-51
2022/05/11 07:31:49;;;;;;;;;;;22.80;57.80;;;;;;5025194;28;19919;-53
2022/05/11 07:34:15;;;;;;;;;;;22.80;57.90;;;;;;5025907;28;20362;-51
2022/05/11 07:36:40;;;;;;;;;;;22.80;58.60;;;;;;5026218;28;19920;-49
2022/05/11 07:39:05;;;;;;;;;;;22.80;57.60;;;;;;5023489;28;19913;-51
2022/05/11 07:41:31;;;;;;;;;;;22.80;57.40;;;;;;5025493;28;20298;-51
2022/05/11 07:43:57;;;;;;;;;;;22.80;57.50;;;;;;5025629;28;19913;-52
2022/05/11 07:46:23;;;;;;;;;;;22.80;57.60;;;;;;5025846;28;19944;-53
2022/05/11 07:48:49;;;;;;;;;;;22.80;57.70;;;;;;5025262;28;20620;-54
2022/05/11 07:51:15;;;;;;;;;;;22.80;58.00;;;;;;5025998;28;20394;-51
2022/05/11 07:53:41;;;;;;;;;;;22.80;57.90;;;;;;5025832;28;19919;-50
2022/05/11 08:01:35;;;;;;;;;;;22.80;57.60;;;;;;5024941;28;19940;-51
2022/05/11 08:04:01;;;;;;;;;;;22.80;58.00;;;;;;5024484;28;19921;-52
2022/05/11 08:06:26;;;;;;;;;;;22.80;57.60;;;;;;5023067;28;20045;-55
2022/05/11 08:08:52;;;;;;;;;;;22.80;57.60;;;;;;5022569;28;19983;-54
2022/05/11 08:11:17;;;;;;;;;;;22.80;57.70;;;;;;5025320;28;19913;-52
2022/05/11 08:13:43;;;;;;;;;;;22.80;57.60;;;;;;5027665;28;19917;-51
2022/05/11 08:16:08;;;;;;;;;;;22.80;57.70;;;;;;5028065;28;19913;-54
2022/05/11 08:18:34;;;;;;;;;;;22.80;57.70;;;;;;5025385;28;20378;-53
2022/05/11 08:21:00;;;;;;;;;;;22.80;57.60;;;;;;5026991;28;19923;-53
2022/05/11 08:23:28;;;;;;;;;;;22.80;58.00;;;;;;5027677;28;19913;-53
2022/05/11 08:25:57;;;;;;;;;;;22.80;57.90;;;;;;5026623;28;19984;-52
2022/05/11 08:28:22;;;;;;;;;;;22.80;57.90;;;;;;5027173;28;19913;-53
2022/05/11 08:33:33;;;;;;;;;;;22.80;57.90;;;;;;5028218;28;19924;-53
2022/05/11 08:36:04;;;;;;;;;;;22.80;58.00;;;;;;5027785;28;19922;-55
2022/05/11 08:38:30;;;;;;;;;;;22.80;58.10;;;;;;5027298;28;19949;-56
2022/05/11 08:40:58;;;;;;;;;;;22.80;58.70;;;;;;5027721;28;19924;-50
2022/05/11 08:43:23;;;;;;;;;;;22.80;58.40;;;;;;5026352;28;19964;-53
2022/05/11 08:46:00;;;;;;;;;;;22.80;59.00;;;;;;5026893;28;19963;-51
2022/05/11 08:48:39;;;;;;;;;;;22.80;58.40;;;;;;5025806;28;19921;-54
2022/05/11 08:51:06;;;;;;;;;;;22.80;58.50;;;;;;5025876;28;19948;-52
2022/05/11 08:53:33;;;;;;;;;;;22.80;58.70;;;;;;5026169;28;19913;-54
2022/05/11 08:55:59;;;;;;;;;;;22.80;58.60;;;;;;5026939;28;19913;-54
2022/05/11 08:58:25;;;;;;;;;;;22.80;58.70;;;;;;5027248;28;20139;-51
2022/05/11 09:00:53;;;;;;;;;;;22.80;58.70;;;;;;5026016;28;19974;-54
2022/05/11 09:03:31;;;;;;;;;;;22.80;58.60;;;;;;5026846;28;19913;-53
2022/05/11 09:05:57;;;;;;;;;;;22.80;58.60;;;;;;5026963;28;19947;-54
2022/05/11 09:08:22;;;;;;;;;;;22.80;58.50;;;;;;5027658;28;20116;-54
2022/05/11 09:10:48;;;;;;;;;;;22.80;58.60;;;;;;5026260;28;19953;-54
2022/05/11 09:13:14;;;;;;;;;;;22.80;58.40;;;;;;5027331;28;20045;-53
2022/05/11 09:15:54;;;;;;;;;;;22.80;57.90;;;;;;5027923;28;19913;-53
2022/05/11 09:18:20;;;;;;;;;;;22.80;57.80;;;;;;5026283;28;19914;-52
2022/05/11 09:20:46;;;;;;;;;;;22.80;57.40;;;;;;5024289;28;20432;-50
2022/05/11 09:23:11;;;;;;;;;;;22.80;57.50;;;;;;5026737;28;19913;-52
2022/05/11 09:25:37;;;;;;;;;;;22.80;57.60;;;;;;5025649;28;19928;-50
2022/05/11 09:28:18;;;;;;;;;;;22.90;57.90;;;;;;5022965;28;19935;-51
2022/05/11 09:30:55;;;;;;;;;;;22.80;57.90;;;;;;5024031;28;19917;-52
2022/05/11 09:33:25;;;;;;;;;;;22.80;57.80;;;;;;5025244;28;19920;-54
2022/05/11 09:35:51;;;;;;;;;;;22.90;57.60;;;;;;5026519;28;19921;-50
2022/05/11 09:38:16;;;;;;;;;;;22.80;57.20;;;;;;5024614;28;19913;-53
2022/05/11 09:41:02;;;;;;;;;;;22.90;58.10;;;;;;5026180;28;19996;-54
2022/05/11 09:43:36;;;;;;;;;;;22.80;57.60;;;;;;5025535;28;19936;-55
2022/05/11 09:46:18;;;;;;;;;;;22.90;57.50;;;;;;5026069;28;20413;-55
2022/05/11 09:48:53;;;;;;;;;;;22.90;57.70;;;;;;5015972;28;20571;-53
2022/05/11 09:51:22;;;;;;;;;;;22.90;58.10;;;;;;5025233;28;19917;-54
2022/05/11 09:53:49;;;;;;;;;;;22.80;58.40;;;;;;5025519;28;19913;-52
2022/05/11 09:56:22;;;;;;;;;;;22.90;58.60;;;;;;5025844;28;19921;-50
2022/05/11 09:58:47;;;;;;;;;;;22.90;58.60;;;;;;5025115;28;19921;-53
2022/05/11 10:01:14;;;;;;;;;;;22.80;58.60;;;;;;5026321;28;20394;-53
2022/05/11 10:03:47;;;;;;;;;;;22.90;58.70;;;;;;5025666;28;19913;-55
2022/05/11 10:06:12;;;;;;;;;;;22.90;58.70;;;;;;5007758;28;19913;-51
2022/05/11 10:08:38;;;;;;;;;;;22.90;58.80;;;;;;5023803;28;19963;-52
2022/05/11 10:11:04;;;;;;;;;;;22.90;58.10;;;;;;5007758;28;20042;-53
2022/05/11 10:13:34;;;;;;;;;;;22.90;57.80;;;;;;5024487;28;20070;-52
2022/05/11 10:21:50;;;;;;;;;;;22.90;57.40;;;;;;5025826;28;19921;-54
2022/05/11 10:24:25;;;;;;;;;;;22.90;57.30;;;;;;5025832;28;19913;-53
2022/05/11 10:27:12;;;;;;;;;;;22.90;57.20;;;;;;5025579;28;19918;-50
2022/05/11 10:29:57;;;;;;;;;;;22.90;57.10;;;;;;5023236;28;19970;-55
2022/05/11 10:32:29;;;;;;;;;;;22.90;56.90;;;;;;5023717;28;19963;-52
2022/05/11 10:35:01;;;;;;;;;;;22.90;57.20;;;;;;5023132;28;20348;-52
2022/05/11 10:37:36;;;;;;;;;;;23.00;57.20;;;;;;5024306;28;20438;-52
2022/05/11 10:40:17;;;;;;;;;;;22.90;56.90;;;;;;5024422;28;19913;-52
2022/05/11 10:42:50;;;;;;;;;;;23.00;57.30;;;;;;5025448;28;19917;-56
2022/05/11 10:45:23;;;;;;;;;;;23.00;57.20;;;;;;5013118;28;21006;-51
2022/05/11 10:48:08;;;;;;;;;;;23.00;57.30;;;;;;5023611;28;19921;-51
2022/05/11 10:50:40;;;;;;;;;;;23.00;57.40;;;;;;5024364;28;19924;-52
2022/05/11 10:53:06;;;;;;;;;;;23.00;57.40;;;;;;5024654;28;20332;-50
2022/05/11 10:55:50;;;;;;;;;;;22.90;57.30;;;;;;5026493;28;19913;-55
2022/05/11 10:58:29;;;;;;;;;;;22.90;57.90;;;;;;5026894;28;19917;-51
2022/05/11 11:01:13;;;;;;;;;;;23.00;57.70;;;;;;5025579;28;19962;-52
2022/05/11 11:03:49;;;;;;;;;;;22.90;57.50;;;;;;5025329;28;20369;-53
2022/05/11 11:09:04;;;;;;;;;;;22.90;57.50;;;;;;5023816;28;19936;-54
2022/05/11 11:11:33;;;;;;;;;;;23.00;57.50;;;;;;5024413;28;19913;-50
2022/05/11 11:14:00;;;;;;;;;;;22.90;57.90;;;;;;5023441;28;19913;-52
2022/05/11 11:16:32;;;;;;;;;;;22.90;57.50;;;;;;5023662;28;19917;-51
2022/05/11 11:18:58;;;;;;;;;;;22.90;57.40;;;;;;5023107;28;19924;-50
2022/05/11 11:21:23;;;;;;;;;;;22.90;57.50;;;;;;5025916;28;19914;-51
2022/05/11 11:24:08;;;;;;;;;;;22.90;58.00;;;;;;5023861;28;20375;-52
2022/05/11 11:26:50;;;;;;;;;;;22.90;58.30;;;;;;5024462;28;19927;-54
2022/05/11 11:29:22;;;;;;;;;;;23.00;58.50;;;;;;5023717;28;19917;-54
2022/05/11 11:31:56;;;;;;;;;;;22.90;58.30;;;;;;5024249;28;19913;-51
2022/05/11 11:34:23;;;;;;;;;;;22.90;58.60;;;;;;5024451;28;19914;-55
2022/05/11 11:36:48;;;;;;;;;;;22.90;58.50;;;;;;5024945;28;19913;-54
2022/05/11 11:39:34;;;;;;;;;;;22.90;58.70;;;;;;5025150;28;19913;-51
2022/05/11 11:42:00;;;;;;;;;;;23.00;58.70;;;;;;5023123;28;19920;-52
2022/05/11 11:44:26;;;;;;;;;;;23.00;58.60;;;;;;5022386;28;20382;-52
2022/05/11 11:46:52;;;;;;;;;;;23.00;58.60;;;;;;5023892;28;19913;-54
2022/05/11 11:49:21;;;;;;;;;;;23.00;58.60;;;;;;5023148;28;19924;-52
2022/05/11 11:51:50;;;;;;;;;;;23.00;58.80;;;;;;5023847;28;19913;-52
2022/05/11 11:54:46;;;;;;;;;;;23.00;58.50;;;;;;5023171;28;19927;-52
2022/05/11 11:57:20;;;;;;;;;;;23.00;58.70;;;;;;5022314;28;19913;-51
2022/05/11 11:59:49;;;;;;;;;;;23.00;58.90;;;;;;5013295;28;19967;-52
2022/05/11 12:02:18;;;;;;;;;;;23.00;59.00;;;;;;5024168;28;19967;-50
2022/05/11 12:04:59;;;;;;;;;;;23.00;58.80;;;;;;5022431;28;19936;-54
2022/05/11 12:16:21;;;;;;;;;;;23.00;58.60;;;;;;5024168;28;19996;-53
2022/05/11 12:18:47;;;;;;;;;;;23.00;58.30;;;;;;5022151;28;19996;-52
2022/05/11 12:21:24;;;;;;;;;;;23.00;58.20;;;;;;5018862;28;20127;-51
2022/05/11 12:23:50;;;;;;;;;;;23.00;57.70;;;;;;5031587;22;19940;-54
2022/05/11 12:26:24;;;;;;;;;;;23.00;58.00;;;;;;5004551;23;20044;-55
2022/05/11 12:28:49;;;;;;;;;;;23.00;58.30;;;;;;4983793;28;20386;-55
2022/05/11 12:31:29;;;;;;;;;;;23.00;58.40;;;;;;4984713;28;19984;-56
2022/05/11 12:33:55;;;;;;;;;;;23.00;58.30;;;;;;4984335;28;21662;-56
2022/05/11 12:36:33;;;;;;;;;;;23.00;58.40;;;;;;4985112;28;19989;-54
2022/05/11 12:39:00;;;;;;;;;;;23.00;58.50;;;;;;4983901;28;19914;-55
2022/05/11 12:41:27;;;;;;;;;;;23.00;58.40;;;;;;4984439;28;19918;-55
2022/05/11 12:43:54;;;;;;;;;;;23.00;58.50;;;;;;4984674;28;20506;-53
2022/05/11 12:46:20;;;;;;;;;;;23.00;58.50;;;;;;4999469;28;20004;-54
2022/05/11 12:48:52;;;;;;;;;;;23.00;58.40;;;;;;5000192;28;20298;-53
2022/05/11 12:51:18;;;;;;;;;;;23.00;58.60;;;;;;5000175;28;20009;-57
2022/05/11 12:53:48;;;;;;;;;;;23.00;58.30;;;;;;5000031;28;19997;-55
2022/05/11 12:56:27;;;;;;;;;;;23.10;58.40;;;;;;4985540;28;20555;-54
2022/05/11 12:58:54;;;;;;;;;;;23.00;58.20;;;;;;4988131;28;19914;-55
2022/05/11 13:01:21;;;;;;;;;;;23.10;58.30;;;;;;4988453;28;19949;-55
2022/05/11 13:03:47;;;;;;;;;;;23.10;58.20;;;;;;4988602;28;19917;-55
2022/05/11 13:06:29;;;;;;;;;;;23.10;58.60;;;;;;4988763;28;19920;-55
2022/05/11 13:08:56;;;;;;;;;;;23.10;58.60;;;;;;5002287;28;19968;-57
2022/05/11 13:11:23;;;;;;;;;;;23.10;58.10;;;;;;4989328;28;19977;-54
2022/05/11 13:13:51;;;;;;;;;;;23.10;58.20;;;;;;5005276;28;19924;-51
2022/05/11 13:16:20;;;;;;;;;;;23.10;58.30;;;;;;5004278;28;20414;-57
2022/05/11 13:18:46;;;;;;;;;;;23.10;58.50;;;;;;5003147;28;20186;-54
2022/05/11 13:21:11;;;;;;;;;;;23.10;58.30;;;;;;5002946;28;20324;-57
2022/05/11 13:23:41;;;;;;;;;;;23.10;58.20;;;;;;5003681;28;19914;-59
2022/05/11 13:26:07;;;;;;;;;;;23.10;58.60;;;;;;5002746;28;19926;-53
2022/05/11 13:28:34;;;;;;;;;;;23.10;58.40;;;;;;4986818;28;19920;-55
2022/05/11 13:31:01;;;;;;;;;;;23.10;58.60;;;;;;4987223;28;19980;-54
2022/05/11 13:33:35;;;;;;;;;;;23.10;58.80;;;;;;4986693;28;19914;-57
2022/05/11 13:36:06;;;;;;;;;;;23.10;58.50;;;;;;4985635;28;19965;-58
2022/05/11 13:38:31;;;;;;;;;;;23.10;58.60;;;;;;4986185;28;19913;-52
2022/05/11 13:41:00;;;;;;;;;;;23.10;58.30;;;;;;5001843;28;20387;-52
2022/05/11 13:43:26;;;;;;;;;;;23.10;58.20;;;;;;4986543;28;20560;-57
2022/05/11 13:46:04;;;;;;;;;;;23.10;58.30;;;;;;4986639;28;19913;-57
2022/05/11 13:48:31;;;;;;;;;;;23.10;58.30;;;;;;4986346;28;19987;-56
2022/05/11 13:51:05;;;;;;;;;;;23.10;58.30;;;;;;4986082;28;19922;-55
2022/05/11 13:53:33;;;;;;;;;;;23.10;58.40;;;;;;4986800;28;19914;-56
2022/05/11 13:56:06;;;;;;;;;;;23.20;57.60;;;;;;5000926;28;19917;-58
2022/05/11 13:58:34;;;;;;;;;;;23.20;57.60;;;;;;4986090;28;19914;-53
2022/05/11 14:01:08;;;;;;;;;;;23.20;57.80;;;;;;4982234;28;19945;-58
2022/05/11 14:03:37;;;;;;;;;;;23.20;57.80;;;;;;4985875;28;19925;-53
2022/05/11 14:06:03;;;;;;;;;;;23.20;57.40;;;;;;4986042;28;20306;-55
2022/05/11 14:08:29;;;;;;;;;;;23.20;58.10;;;;;;4984403;28;19945;-54
2022/05/11 14:10:54;;;;;;;;;;;23.20;57.50;;;;;;4986161;28;20296;-57
2022/05/11 14:13:20;;;;;;;;;;;23.20;58.10;;;;;;4986270;28;19918;-55
2022/05/11 14:15:46;;;;;;;;;;;23.20;57.80;;;;;;4986720;28;20403;-54
2022/05/11 14:18:12;;;;;;;;;;;23.20;57.60;;;;;;4986310;28;19914;-55
2022/05/11 14:20:38;;;;;;;;;;;23.20;57.90;;;;;;5000771;28;19986;-51
2022/05/11 14:23:04;;;;;;;;;;;23.20;58.00;;;;;;4986497;28;20000;-55
2022/05/11 14:25:29;;;;;;;;;;;23.20;58.30;;;;;;4996867;28;19922;-56
2022/05/11 14:27:56;;;;;;;;;;;23.20;57.90;;;;;;5005932;28;19917;-56
2022/05/11 14:30:21;;;;;;;;;;;23.20;57.70;;;;;;5004458;28;19918;-57
2022/05/11 14:32:48;;;;;;;;;;;23.20;58.10;;;;;;5004875;28;21226;-54
2022/05/11 14:35:15;;;;;;;;;;;23.20;58.00;;;;;;5006733;28;20294;-54
2022/05/11 14:37:40;;;;;;;;;;;23.30;58.20;;;;;;5006429;28;20430;-54
2022/05/11 14:40:06;;;;;;;;;;;23.30;58.10;;;;;;5005118;28;20000;-55
2022/05/11 14:42:32;;;;;;;;;;;23.20;57.60;;;;;;5005532;28;19913;-56
2022/05/11 14:44:58;;;;;;;;;;;23.30;58.00;;;;;;5004963;28;20025;-58
2022/05/11 14:47:23;;;;;;;;;;;23.30;57.80;;;;;;4988119;28;19922;-55
2022/05/11 14:49:49;;;;;;;;;;;23.30;58.00;;;;;;4987620;28;19925;-54
2022/05/11 14:52:15;;;;;;;;;;;23.30;57.40;;;;;;5005595;28;19936;-55
2022/05/11 14:54:40;;;;;;;;;;;23.30;57.50;;;;;;5004618;28;19963;-55
2022/05/11 15:02:35;;;;;;;;;;;23.30;57.40;;;;;;5004670;28;19921;-55
2022/05/11 15:05:01;;;;;;;;;;;23.30;57.90;;;;;;5004533;28;19913;-55
2022/05/11 15:07:26;;;;;;;;;;;23.30;58.10;;;;;;5004585;28;19964;-57